Time;durP1;ratioP1;P1;durP2;ratioP2;P2;SDS_P1;SDS_P2;PMS_P1;PMS_P2;Temp;Humidity;BMP_temperature;BMP_pressure;BME280_temperature;BME280_humidity;BME280_pressure;Samples;Min_cycle;Max_cycle;Signal;HPM_P1;HPM_P2
2021/08/01 00:00:04;;;;;;;3.70;3.13;;;;;;;17.42;76.32;100738.22;3588661;40;20217;-74
2021/08/01 00:02:29;;;;;;;4.73;3.23;;;;;;;17.41;76.00;100733.91;3588528;40;20654;-74
2021/08/01 00:04:54;;;;;;;4.83;3.37;;;;;;;17.21;77.13;100733.19;3588746;40;20213;-74
2021/08/01 00:07:19;;;;;;;5.07;3.60;;;;;;;17.31;76.80;100737.44;3588479;40;20519;-74
2021/08/01 00:09:45;;;;;;;4.40;3.90;;;;;;;17.31;76.97;100732.25;3588503;40;20248;-75
2021/08/01 00:12:10;;;;;;;4.30;3.70;;;;;;;17.61;76.08;100731.97;3588277;40;20228;-74
2021/08/01 00:14:35;;;;;;;5.80;3.53;;;;;;;17.32;76.98;100739.16;3588298;40;20508;-75
2021/08/01 00:17:01;;;;;;;4.93;3.40;;;;;;;17.52;76.56;100745.00;3588056;40;20592;-74
2021/08/01 00:19:26;;;;;;;5.50;3.60;;;;;;;17.86;74.65;100742.03;3588240;40;20261;-74
2021/08/01 00:21:51;;;;;;;5.97;3.80;;;;;;;17.82;74.73;100736.91;3588215;40;20611;-74
2021/08/01 00:24:17;;;;;;;5.57;3.23;;;;;;;17.87;74.27;100737.72;3588517;40;20240;-74
2021/08/01 00:26:42;;;;;;;6.77;3.73;;;;;;;17.78;74.66;100737.81;3588406;40;20234;-74
2021/08/01 00:29:07;;;;;;;5.00;3.80;;;;;;;17.75;74.68;100746.50;3588444;40;20237;-74
2021/08/01 00:31:33;;;;;;;4.93;3.50;;;;;;;17.64;74.70;100745.72;3588399;40;20225;-74
2021/08/01 00:33:59;;;;;;;4.00;3.53;;;;;;;17.74;74.54;100744.75;3588352;40;20226;-74
2021/08/01 00:36:25;;;;;;;5.73;3.77;;;;;;;17.50;75.57;100757.13;3588371;40;20237;-75
2021/08/01 00:38:50;;;;;;;4.30;3.90;;;;;;;17.50;75.63;100751.94;3588137;40;20237;-74
2021/08/01 00:41:15;;;;;;;5.80;3.90;;;;;;;17.68;74.61;100759.53;3588031;40;20720;-74
2021/08/01 00:43:41;;;;;;;5.20;4.23;;;;;;;17.53;74.89;100751.91;3588305;40;20234;-74
2021/08/01 00:46:06;;;;;;;6.33;3.67;;;;;;;17.61;74.97;100750.09;3587990;40;20225;-74
2021/08/01 00:48:33;;;;;;;4.03;3.63;;;;;;;17.43;74.73;100750.28;3588067;40;20244;-74
2021/08/01 00:50:59;;;;;;;4.97;3.33;;;;;;;17.41;75.21;100752.03;3584056;40;20233;-74
2021/08/01 00:53:26;;;;;;;5.27;3.73;;;;;;;17.50;75.19;100751.94;3588353;40;20332;-74
2021/08/01 00:55:51;;;;;;;4.50;3.80;;;;;;;17.52;74.26;100748.47;3588439;40;20222;-74
2021/08/01 00:58:16;;;;;;;5.07;3.50;;;;;;;17.53;74.17;100736.34;3588182;40;20276;-74
2021/08/01 01:01:05;;;;;;;4.00;3.23;;;;;;;17.18;75.60;100735.84;3588506;40;20228;-74
2021/08/01 01:04:02;;;;;;;5.33;3.57;;;;;;;17.22;75.61;100729.75;3580217;40;20277;-74
2021/08/01 01:06:45;;;;;;;4.03;3.50;;;;;;;17.06;75.92;100728.16;3588263;40;20221;-73
2021/08/01 01:09:32;;;;;;;5.33;3.30;;;;;;;17.47;74.81;100733.84;3588641;40;20240;-73
2021/08/01 01:12:02;;;;;;;4.43;2.97;;;;;;;17.36;74.29;100718.38;3588205;40;20225;-73
2021/08/01 01:14:29;;;;;;;3.97;3.60;;;;;;;17.36;75.26;100722.72;3588110;40;20314;-73
2021/08/01 01:16:59;;;;;;;4.17;3.57;;;;;;;17.53;74.37;100716.50;3587972;40;20677;-73
2021/08/01 01:19:37;;;;;;;6.07;3.63;;;;;;;17.75;73.17;100724.91;3587907;40;20252;-73
2021/08/01 01:22:13;;;;;;;6.30;3.73;;;;;;;17.48;73.95;100714.84;3584662;40;20310;-73
2021/08/01 01:24:40;;;;;;;4.27;3.43;;;;;;;17.64;74.13;100719.00;3587961;40;20544;-74
2021/08/01 01:27:27;;;;;;;5.23;4.07;;;;;;;17.76;73.36;100729.19;3588294;40;20228;-73
2021/08/01 01:30:01;;;;;;;6.13;4.13;;;;;;;17.75;73.14;100719.72;3587965;40;20245;-74
2021/08/01 01:32:34;;;;;;;4.23;3.83;;;;;;;17.67;73.14;100727.56;3587729;40;20538;-75
2021/08/01 01:35:04;;;;;;;4.20;3.80;;;;;;;17.71;73.58;100725.81;3587901;40;20229;-75
2021/08/01 01:37:31;;;;;;;5.20;4.10;;;;;;;17.74;73.03;100729.22;3588271;40;20233;-75
2021/08/01 01:40:00;;;;;;;4.97;4.10;;;;;;;17.78;73.25;100732.66;3587790;40;20252;-75
2021/08/01 01:42:26;;;;;;;5.87;4.50;;;;;;;17.75;73.75;100738.72;3587894;40;20221;-75
2021/08/01 01:44:53;;;;;;;5.33;4.30;;;;;;;17.81;73.56;100728.28;3590262;40;20213;-75
2021/08/01 01:47:19;;;;;;;5.37;4.70;;;;;;;17.75;73.53;100730.94;3589509;40;20325;-75
2021/08/01 01:49:45;;;;;;;5.10;4.53;;;;;;;17.73;73.67;100726.66;3588976;40;20252;-74
2021/08/01 01:52:12;;;;;;;5.20;4.70;;;;;;;17.85;73.23;100727.38;3587990;40;20229;-75
2021/08/01 01:54:37;;;;;;;6.17;4.53;;;;;;;17.51;74.33;100722.59;3588363;40;20233;-74
2021/08/01 01:57:05;;;;;;;5.97;4.80;;;;;;;17.29;75.21;100731.41;3587773;40;20221;-75
2021/08/01 01:59:30;;;;;;;7.27;5.37;;;;;;;17.52;74.67;100730.34;3587726;40;20640;-75
2021/08/01 02:01:56;;;;;;;5.30;4.80;;;;;;;17.81;73.10;100732.59;3588114;40;20225;-75
2021/08/01 02:04:21;;;;;;;6.23;5.00;;;;;;;17.80;73.50;100728.28;3587703;40;20269;-75
2021/08/01 02:06:46;;;;;;;5.87;5.33;;;;;;;17.81;73.27;100727.41;3587848;40;20230;-75
2021/08/01 02:09:33;;;;;;;8.80;5.00;;;;;;;17.80;73.45;100726.56;3587877;40;20236;-73
2021/08/01 02:12:17;;;;;;;5.90;5.13;;;;;;;17.80;72.73;100717.94;3588124;40;20221;-74
2021/08/01 02:15:11;;;;;;;6.03;5.40;;;;;;;17.53;74.07;100711.34;3588057;40;20225;-75
2021/08/01 02:17:56;;;;;;;8.30;5.17;;;;;;;17.52;74.44;100713.94;3587839;40;20565;-74
2021/08/01 02:20:28;;;;;;;7.67;4.70;;;;;;;17.59;74.33;100707.84;3587845;40;20534;-73
2021/08/01 02:22:54;;;;;;;9.53;4.73;;;;;;;17.27;75.21;100702.09;3587682;40;20236;-73
2021/08/01 02:25:21;;;;;;;7.13;4.57;;;;;;;17.62;74.12;100700.88;3587557;40;20237;-73
2021/08/01 02:27:48;;;;;;;5.93;4.70;;;;;;;17.43;74.98;100694.19;3587790;40;20225;-73
2021/08/01 02:30:15;;;;;;;5.67;4.63;;;;;;;17.43;74.54;100699.38;3587548;40;20287;-74
2021/08/01 02:32:41;;;;;;;4.93;4.53;;;;;;;17.21;75.41;100697.84;3577717;40;20266;-73
2021/08/01 02:35:07;;;;;;;6.33;4.73;;;;;;;17.36;74.79;100695.09;3586343;40;20223;-74
2021/08/01 02:37:35;;;;;;;8.80;5.90;;;;;;;17.73;73.68;100700.75;3578272;40;20233;-74
2021/08/01 02:40:01;;;;;;;6.60;5.17;;;;;;;17.64;73.58;100713.81;3587192;40;20266;-74
2021/08/01 02:42:28;;;;;;;7.87;5.73;;;;;;;17.74;73.15;100710.22;3587606;40;20229;-75
2021/08/01 02:44:58;;;;;;;7.93;5.87;;;;;;;17.53;73.50;100705.28;3586586;40;20527;-74
2021/08/01 02:47:24;;;;;;;6.57;5.13;;;;;;;17.75;72.96;100705.03;3587631;40;20261;-74
2021/08/01 02:49:51;;;;;;;8.03;5.77;;;;;;;17.85;72.56;100705.78;3587264;40;20277;-75
2021/08/01 02:52:27;;;;;;;7.73;6.43;;;;;;;17.78;73.10;100709.31;3587174;40;20237;-75
2021/08/01 02:54:53;;;;;;;7.13;6.20;;;;;;;17.83;72.43;100705.78;3587214;40;20233;-75
2021/08/01 02:57:21;;;;;;;8.00;6.33;;;;;;;17.74;72.71;100705.91;3583550;40;20569;-75
2021/08/01 02:59:47;;;;;;;8.33;6.10;;;;;;;17.61;73.55;100704.34;3584461;40;20241;-75
2021/08/01 03:02:13;;;;;;;6.70;5.83;;;;;;;17.67;73.14;100706.00;3587623;40;20245;-75
2021/08/01 03:04:40;;;;;;;7.40;6.07;;;;;;;17.37;73.83;100701.13;3587447;40;20812;-75
2021/08/01 03:07:10;;;;;;;7.63;6.40;;;;;;;17.56;73.40;100706.13;3587240;40;20249;-75
2021/08/01 03:09:36;;;;;;;7.60;5.80;;;;;;;17.46;74.06;100704.50;3588177;40;20608;-75
2021/08/01 03:12:09;;;;;;;7.63;5.77;;;;;;;17.50;74.34;100711.34;3589137;40;20302;-75
2021/08/01 03:14:34;;;;;;;7.63;5.83;;;;;;;17.57;73.59;100710.44;3589272;40;20228;-75
2021/08/01 03:16:59;;;;;;;6.83;5.80;;;;;;;17.63;73.29;100706.91;3588871;40;20375;-75
2021/08/01 03:19:25;;;;;;;8.17;5.87;;;;;;;17.48;74.08;100707.94;3589333;40;20508;-74
2021/08/01 03:21:50;;;;;;;6.90;5.20;;;;;;;17.61;73.66;100698.28;3579536;40;20233;-75
2021/08/01 03:24:15;;;;;;;10.07;6.00;;;;;;;17.48;74.11;100702.75;3589040;40;20251;-74
2021/08/01 03:26:40;;;;;;;9.20;6.40;;;;;;;17.66;72.84;100706.88;3589266;40;20225;-75
2021/08/01 03:29:06;;;;;;;5.87;5.37;;;;;;;17.53;73.77;100711.34;3589321;40;20233;-74
2021/08/01 03:31:31;;;;;;;8.10;5.73;;;;;;;17.61;73.47;100714.72;3588811;40;20240;-75
2021/08/01 03:33:56;;;;;;;7.63;6.13;;;;;;;17.50;73.69;100713.09;3589339;40;20226;-74
2021/08/01 03:36:21;;;;;;;7.83;5.80;;;;;;;17.53;73.48;100713.06;3588818;40;20225;-74
2021/08/01 03:38:46;;;;;;;7.93;7.13;;;;;;;17.43;74.27;100706.25;3588699;40;20236;-75
2021/08/01 03:41:12;;;;;;;7.30;6.37;;;;;;;17.36;74.42;100705.44;3589096;40;20592;-75
2021/08/01 03:43:37;;;;;;;7.20;6.10;;;;;;;17.31;74.70;100696.03;3588621;40;20248;-75
2021/08/01 03:46:02;;;;;;;8.07;6.83;;;;;;;17.19;75.22;100712.53;3588770;40;20236;-75
2021/08/01 03:48:27;;;;;;;10.47;7.60;;;;;;;17.55;73.51;100696.63;3588392;40;20655;-75
2021/08/01 03:50:53;;;;;;;8.27;7.40;;;;;;;17.55;73.67;100700.97;3588550;40;20235;-74
2021/08/01 03:53:18;;;;;;;8.87;7.30;;;;;;;17.52;73.78;100707.03;3588904;40;20241;-74
2021/08/01 03:55:44;;;;;;;8.77;7.50;;;;;;;17.39;74.28;100701.97;3571422;40;20288;-74
2021/08/01 03:58:09;;;;;;;8.80;7.20;;;;;;;17.28;74.66;100715.03;3579481;40;20237;-75
2021/08/01 04:00:34;;;;;;;9.20;7.17;;;;;;;17.34;74.73;100717.56;3589429;40;20249;-74
2021/08/01 04:02:59;;;;;;;8.43;7.63;;;;;;;17.67;73.06;100718.94;3588644;40;20233;-74
2021/08/01 04:05:25;;;;;;;9.53;6.80;;;;;;;17.44;74.12;100732.16;3581985;40;20229;-74
2021/08/01 04:07:50;;;;;;;8.13;7.33;;;;;;;17.58;73.65;100732.00;3588561;40;20233;-75
2021/08/01 04:10:15;;;;;;;10.20;6.70;;;;;;;17.65;72.48;100738.84;3588547;40;20229;-74
2021/08/01 04:12:41;;;;;;;10.37;7.50;;;;;;;17.65;73.44;100744.88;3588717;40;20229;-75
2021/08/01 04:15:06;;;;;;;11.47;7.60;;;;;;;17.62;73.52;100746.63;3588649;40;20225;-74
2021/08/01 04:17:33;;;;;;;10.37;7.10;;;;;;;17.50;73.29;100746.78;3588881;40;20228;-75
2021/08/01 04:19:58;;;;;;;9.77;6.23;;;;;;;17.46;73.59;100753.69;3588193;40;20229;-74
2021/08/01 04:22:25;;;;;;;7.70;5.80;;;;;;;17.27;74.33;100746.94;3588187;40;20228;-74
2021/08/01 04:24:51;;;;;;;7.50;6.40;;;;;;;17.40;74.20;100758.09;3588792;40;20221;-74
2021/08/01 04:27:16;;;;;;;8.33;6.00;;;;;;;17.22;74.63;100766.84;3588779;40;20262;-75
2021/08/01 04:29:41;;;;;;;7.67;5.80;;;;;;;17.29;74.24;100762.47;3588553;40;20237;-74
2021/08/01 04:32:07;;;;;;;9.87;6.23;;;;;;;17.58;73.83;100758.75;3588768;40;20232;-75
2021/08/01 04:34:32;;;;;;;8.40;6.00;;;;;;;17.62;73.27;100768.22;3588690;40;20229;-75
2021/08/01 04:36:58;;;;;;;7.50;6.13;;;;;;;17.40;73.54;100761.53;3588836;40;20248;-75
2021/08/01 04:39:23;;;;;;;7.27;5.67;;;;;;;17.31;74.15;100764.16;3588180;40;20314;-74
2021/08/01 04:41:48;;;;;;;5.17;4.63;;;;;;;17.10;75.09;100766.09;3588875;40;20601;-74
2021/08/01 04:44:13;;;;;;;8.47;6.33;;;;;;;17.05;75.24;100770.44;3584636;40;20323;-74
2021/08/01 04:46:39;;;;;;;11.40;6.67;;;;;;;17.32;74.36;100768.47;3584102;40;20225;-74
2021/08/01 04:49:05;;;;;;;10.07;6.30;;;;;;;17.58;73.25;100770.84;3588390;40;20638;-75
2021/08/01 04:51:30;;;;;;;8.97;6.63;;;;;;;17.55;72.80;100769.13;3588400;40;20224;-74
2021/08/01 04:53:56;;;;;;;7.13;5.37;;;;;;;17.34;73.80;100765.88;3588449;40;20224;-74
2021/08/01 04:56:21;;;;;;;7.33;6.00;;;;;;;17.31;73.67;100766.75;3588422;40;20229;-74
2021/08/01 04:58:46;;;;;;;10.57;6.43;;;;;;;17.59;72.87;100777.75;3588162;40;20245;-74
2021/08/01 05:01:13;;;;;;;9.10;6.37;;;;;;;17.52;73.44;100779.53;3588524;40;20237;-74
2021/08/01 05:03:38;;;;;;;9.73;6.50;;;;;;;17.92;71.65;100777.38;3588157;40;20310;-75
2021/08/01 05:06:03;;;;;;;9.50;6.53;;;;;;;17.91;71.32;100781.69;3581590;40;20254;-74
2021/08/01 05:08:28;;;;;;;6.80;6.07;;;;;;;17.71;72.64;100783.66;3579443;40;67034;-74
2021/08/01 05:10:54;;;;;;;7.60;6.60;;;;;;;17.94;71.23;100786.84;3588259;40;20226;-75
2021/08/01 05:13:19;;;;;;;7.17;5.90;;;;;;;17.98;71.06;100787.66;3588268;40;20222;-75
2021/08/01 05:15:44;;;;;;;8.43;5.77;;;;;;;17.83;71.30;100783.50;3588160;40;20225;-75
2021/08/01 05:18:09;;;;;;;7.47;6.10;;;;;;;17.74;71.57;100778.44;3587711;40;20514;-74
2021/08/01 05:20:41;;;;;;;11.20;6.80;;;;;;;17.62;72.37;100794.13;3588085;40;20228;-74
2021/08/01 05:23:06;;;;;;;10.97;6.43;;;;;;;17.88;71.93;100783.47;3588092;40;20264;-74
2021/08/01 05:25:31;;;;;;;8.40;6.17;;;;;;;18.01;71.66;100785.06;3588223;40;20496;-74
2021/08/01 05:27:57;;;;;;;8.43;6.60;;;;;;;18.03;70.32;100778.97;3588124;40;20244;-73
2021/08/01 05:30:22;;;;;;;7.63;6.07;;;;;;;18.15;70.69;100783.16;3588097;40;20233;-74
2021/08/01 05:32:47;;;;;;;8.47;5.83;;;;;;;18.06;71.37;100780.69;3587326;40;20608;-74
2021/08/01 05:35:12;;;;;;;8.97;6.00;;;;;;;18.10;71.51;100783.19;3581150;40;20222;-75
2021/08/01 05:37:38;;;;;;;6.33;5.60;;;;;;;18.32;70.44;100783.78;3587676;40;20209;-74
2021/08/01 05:40:03;;;;;;;11.37;6.20;;;;;;;18.24;70.61;100780.44;3587843;40;20218;-74
2021/08/01 05:42:33;;;;;;;8.93;6.23;;;;;;;18.23;70.75;100773.56;3587931;40;20237;-75
2021/08/01 05:44:58;;;;;;;9.47;6.10;;;;;;;18.10;71.09;100772.81;3588351;40;20225;-75
2021/08/01 05:47:23;;;;;;;10.10;6.33;;;;;;;18.03;71.58;100772.94;3588080;40;20225;-74
2021/08/01 05:49:48;;;;;;;8.40;6.80;;;;;;;18.36;69.59;100775.13;3587902;40;20229;-74
2021/08/01 05:52:15;;;;;;;8.10;6.43;;;;;;;18.51;69.30;100780.97;3588119;40;20256;-74
2021/08/01 05:54:40;;;;;;;13.20;6.80;;;;;;;18.31;70.24;100782.06;3584744;40;20633;-74
2021/08/01 05:57:05;;;;;;;9.73;7.33;;;;;;;18.53;69.70;100771.44;3584729;40;20233;-74
2021/08/01 05:59:32;;;;;;;10.37;8.17;;;;;;;18.70;68.82;100777.22;3577762;40;20587;-74
2021/08/01 06:01:57;;;;;;;9.50;7.13;;;;;;;18.66;69.41;100772.94;3577963;40;20497;-75
2021/08/01 06:04:22;;;;;;;9.87;8.07;;;;;;;18.90;68.68;100769.16;3577866;40;20232;-75
2021/08/01 06:06:47;;;;;;;8.80;7.90;;;;;;;18.75;69.00;100767.63;3568393;40;20238;-74
2021/08/01 06:09:13;;;;;;;11.70;8.27;;;;;;;18.95;67.70;100775.13;3568516;40;20229;-74
2021/08/01 06:11:38;;;;;;;13.50;9.70;;;;;;;18.83;68.25;100775.31;3578718;40;20240;-72
2021/08/01 06:14:03;;;;;;;11.47;8.17;;;;;;;18.77;68.45;100773.69;3587805;40;20221;-74
2021/08/01 06:16:30;;;;;;;10.13;9.13;;;;;;;18.80;67.90;100768.41;3587800;40;20256;-73
2021/08/01 06:18:55;;;;;;;9.90;8.60;;;;;;;18.60;69.65;100764.44;3587666;40;20240;-72
2021/08/01 06:21:20;;;;;;;10.60;9.10;;;;;;;18.78;68.15;100769.31;3587949;40;20233;-74
2021/08/01 06:23:49;;;;;;;12.20;9.20;;;;;;;18.63;68.10;100765.25;3588021;40;20225;-74
2021/08/01 06:26:15;;;;;;;11.13;8.50;;;;;;;18.73;68.62;100768.53;3587912;40;20226;-75
2021/08/01 06:28:41;;;;;;;11.07;9.17;;;;;;;18.82;67.79;100763.22;3588049;40;20240;-74
2021/08/01 06:31:07;;;;;;;11.77;8.80;;;;;;;18.73;68.26;100771.13;3589025;40;20624;-72
2021/08/01 06:33:34;;;;;;;11.63;7.80;;;;;;;18.59;69.22;100767.88;3589276;40;20276;-74
2021/08/01 06:35:59;;;;;;;12.50;9.07;;;;;;;19.00;68.38;100771.56;3589526;40;20250;-73
2021/08/01 06:38:25;;;;;;;9.80;8.40;;;;;;;19.17;67.01;100772.13;3588314;40;20233;-73
2021/08/01 06:40:51;;;;;;;9.70;7.00;;;;;;;19.11;67.39;100774.84;3587862;40;20232;-74
2021/08/01 06:43:16;;;;;;;10.73;8.67;;;;;;;19.25;66.80;100775.50;3588194;40;20702;-76
2021/08/01 06:45:42;;;;;;;12.27;8.50;;;;;;;19.40;66.86;100777.00;3589377;40;20322;-74
2021/08/01 06:48:07;;;;;;;11.80;8.73;;;;;;;19.38;66.54;100776.16;3585830;40;20321;-73
2021/08/01 06:50:34;;;;;;;10.30;7.63;;;;;;;19.36;66.23;100776.19;3588185;40;20225;-73
2021/08/01 06:52:59;;;;;;;10.07;8.13;;;;;;;19.29;66.98;100777.19;3589113;40;20221;-74
2021/08/01 06:55:25;;;;;;;10.73;8.23;;;;;;;19.51;64.81;100782.84;3589124;40;20217;-73
2021/08/01 06:57:50;;;;;;;9.93;8.03;;;;;;;19.53;64.79;100783.69;3589190;40;20808;-73
2021/08/01 07:00:20;;;;;;;7.80;7.03;;;;;;;19.39;64.93;100789.13;3588746;40;20229;-73
2021/08/01 07:02:45;;;;;;;10.50;7.30;;;;;;;19.43;65.82;100789.94;3589496;40;20275;-74
2021/08/01 07:05:10;;;;;;;10.17;8.07;;;;;;;19.74;64.85;100785.88;3589319;40;20232;-73
2021/08/01 07:07:35;;;;;;;10.43;8.37;;;;;;;19.90;63.98;100784.72;3589289;40;20303;-74
2021/08/01 07:10:01;;;;;;;9.60;7.37;;;;;;;19.83;64.82;100799.56;3588918;40;20232;-74
2021/08/01 07:12:26;;;;;;;9.97;8.13;;;;;;;19.99;63.94;100777.56;3589278;40;20237;-74
2021/08/01 07:14:51;;;;;;;10.40;8.43;;;;;;;19.89;63.70;100789.06;3588996;40;20229;-73
2021/08/01 07:17:21;;;;;;;9.90;8.30;;;;;;;19.62;65.20;100791.31;3589402;40;20372;-74
2021/08/01 07:19:50;;;;;;;9.03;7.90;;;;;;;19.77;64.36;100791.03;3588968;40;20592;-75
2021/08/01 07:22:15;;;;;;;13.20;7.67;;;;;;;19.72;64.62;100791.09;3589088;40;20601;-74
2021/08/01 07:24:40;;;;;;;8.07;7.27;;;;;;;19.53;65.64;100794.09;3588946;40;20237;-75
2021/08/01 07:27:05;;;;;;;10.50;7.67;;;;;;;19.55;65.32;100787.09;3589210;40;20488;-74
2021/08/01 07:29:31;;;;;;;9.30;7.87;;;;;;;19.64;64.80;100787.81;3588105;40;20236;-75
2021/08/01 07:31:57;;;;;;;8.50;7.60;;;;;;;19.67;64.74;100790.34;3588779;40;20221;-75
2021/08/01 07:34:22;;;;;;;9.30;6.87;;;;;;;19.61;64.87;100784.38;3589369;40;20217;-75
2021/08/01 07:36:47;;;;;;;6.93;6.23;;;;;;;19.60;64.51;100782.69;3589391;40;20221;-75
2021/08/01 07:39:12;;;;;;;9.23;7.30;;;;;;;19.65;65.33;100783.44;3589084;40;20233;-75
2021/08/01 07:41:38;;;;;;;8.67;6.83;;;;;;;19.92;63.76;100783.81;3589126;40;20614;-75
2021/08/01 07:44:03;;;;;;;7.50;6.53;;;;;;;19.86;63.61;100781.31;3588689;40;20257;-75
2021/08/01 07:46:28;;;;;;;10.20;7.33;;;;;;;19.93;63.47;100784.63;3588755;40;20233;-74
2021/08/01 07:48:54;;;;;;;8.73;7.23;;;;;;;20.23;62.34;100776.28;3588930;40;20229;-74
2021/08/01 07:51:19;;;;;;;7.53;6.83;;;;;;;20.29;62.75;100778.72;3589476;40;20225;-74
2021/08/01 07:53:44;;;;;;;10.03;8.10;;;;;;;20.55;62.38;100784.25;3588915;40;20217;-74
2021/08/01 07:56:09;;;;;;;10.57;8.03;;;;;;;20.68;61.04;100773.50;3589077;40;20517;-76
2021/08/01 07:58:35;;;;;;;8.87;7.43;;;;;;;20.48;62.01;100772.25;3589033;40;20252;-75
2021/08/01 08:01:00;;;;;;;11.73;7.93;;;;;;;20.61;60.25;100773.69;3589250;40;20329;-75
2021/08/01 08:03:25;;;;;;;8.60;7.70;;;;;;;20.65;60.65;100763.19;3588568;40;20229;-73
2021/08/01 08:05:51;;;;;;;11.07;8.50;;;;;;;20.64;62.06;100769.25;3580204;40;20233;-74
2021/08/01 08:08:17;;;;;;;10.27;8.77;;;;;;;20.84;60.62;100761.88;3589108;40;20604;-75
2021/08/01 08:10:42;;;;;;;11.83;7.67;;;;;;;20.81;61.03;100766.25;3588021;40;20213;-75
2021/08/01 08:13:07;;;;;;;9.23;6.70;;;;;;;20.93;60.52;100759.06;3584870;40;20232;-75
2021/08/01 08:15:33;;;;;;;10.90;7.10;;;;;;;20.89;61.33;100760.00;3584301;40;20905;-75
2021/08/01 08:17:58;;;;;;;9.33;6.87;;;;;;;20.97;61.26;100762.44;3588535;40;20233;-75
2021/08/01 08:20:23;;;;;;;9.50;7.17;;;;;;;21.21;59.81;100762.72;3588522;40;20314;-75
2021/08/01 08:22:49;;;;;;;11.47;8.70;;;;;;;21.18;59.36;100761.91;3588456;40;20245;-75
2021/08/01 08:25:15;;;;;;;8.43;7.23;;;;;;;20.89;61.05;100766.94;3588320;40;20608;-75
2021/08/01 08:27:40;;;;;;;13.03;8.27;;;;;;;21.14;60.02;100762.91;3588429;40;20241;-75
2021/08/01 08:30:07;;;;;;;11.23;8.53;;;;;;;21.24;59.74;100753.97;3579318;40;20237;-75
2021/08/01 08:32:33;;;;;;;10.87;8.50;;;;;;;21.27;60.29;100752.13;3588514;40;20714;-74
2021/08/01 08:34:59;;;;;;;9.60;7.27;;;;;;;21.25;59.50;100755.66;3584277;40;20217;-75
2021/08/01 08:37:24;;;;;;;11.57;8.50;;;;;;;21.39;59.33;100748.34;3579839;40;20215;-75
2021/08/01 08:39:49;;;;;;;11.37;7.67;;;;;;;21.56;58.40;100743.56;3578383;40;20245;-75
2021/08/01 08:42:16;;;;;;;9.33;7.27;;;;;;;21.84;58.81;100744.53;3578766;40;20601;-73
2021/08/01 08:44:41;;;;;;;9.30;6.83;;;;;;;22.13;57.77;100750.63;3578755;40;20304;-73
2021/08/01 08:47:07;;;;;;;8.63;7.10;;;;;;;22.46;55.70;100748.78;3578426;40;20234;-73
2021/08/01 08:49:36;;;;;;;9.10;6.77;;;;;;;22.66;55.74;100750.78;3578787;40;20273;-73
2021/08/01 08:52:05;;;;;;;7.97;7.17;;;;;;;22.75;55.72;100751.34;3578183;40;20698;-73
2021/08/01 08:54:43;;;;;;;6.83;5.83;;;;;;;22.87;54.31;100748.34;3568876;40;20227;-73
2021/08/01 08:57:16;;;;;;;7.33;6.50;;;;;;;23.08;53.18;100755.50;3578198;40;20257;-73
2021/08/01 08:59:41;;;;;;;6.47;5.87;;;;;;;22.71;54.15;100754.97;3578306;40;20262;-73
2021/08/01 09:02:11;;;;;;;7.13;5.90;;;;;;;22.75;55.13;100759.19;3578155;40;20228;-74
2021/08/01 09:04:37;;;;;;;7.23;6.27;;;;;;;22.72;54.20;100761.03;3578179;40;20222;-74
2021/08/01 09:07:02;;;;;;;9.80;6.90;;;;;;;22.71;54.73;100754.97;3577790;40;20237;-73
2021/08/01 09:09:28;;;;;;;7.93;6.70;;;;;;;22.63;53.86;100756.09;3578108;40;20238;-73
2021/08/01 09:11:53;;;;;;;8.47;6.07;;;;;;;22.62;54.47;100757.88;3578816;40;20501;-73
2021/08/01 09:14:20;;;;;;;8.57;6.23;;;;;;;22.83;53.50;100749.34;3581960;40;20681;-73
2021/08/01 09:16:50;;;;;;;7.30;6.07;;;;;;;22.72;54.33;100748.84;3582295;40;20232;-73
2021/08/01 09:19:30;;;;;;;7.90;6.00;;;;;;;22.99;53.11;100749.72;3580803;40;20230;-73
2021/08/01 09:22:16;;;;;;;7.17;6.07;;;;;;;23.14;52.62;100742.22;3578205;40;20225;-74
2021/08/01 09:24:44;;;;;;;8.80;5.68;;;;;;;23.41;52.06;100750.91;3569210;40;20230;-74
2021/08/01 09:27:25;;;;;;;8.80;5.13;;;;;;;23.23;52.14;100751.53;3578196;40;20233;-74
2021/08/01 09:29:50;;;;;;;5.90;4.88;;;;;;;23.20;52.32;100746.44;3578662;40;20281;-73
2021/08/01 09:32:16;;;;;;;8.00;5.67;;;;;;;23.50;51.06;100737.53;3569295;40;20222;-76
2021/08/01 09:34:46;;;;;;;5.35;4.75;;;;;;;23.43;50.77;100730.81;3586173;40;20225;-75
2021/08/01 09:37:11;;;;;;;6.97;4.30;;;;;;;23.01;52.48;100735.69;3583889;40;20253;-77
2021/08/01 09:39:43;;;;;;;4.83;3.80;;;;;;;22.76;53.80;100737.41;3585137;40;20248;-77
2021/08/01 09:42:10;;;;;;;5.90;4.60;;;;;;;22.76;53.61;100734.78;3579632;40;20229;-77
2021/08/01 09:44:37;;;;;;;5.00;4.50;;;;;;;22.83;53.16;100733.69;3587915;40;20240;-77
2021/08/01 09:47:02;;;;;;;5.47;4.00;;;;;;;22.66;53.22;100745.56;3588148;40;20229;-78
2021/08/01 09:49:31;;;;;;;4.43;4.00;;;;;;;22.54;54.22;100732.88;3588258;40;20249;-77
2021/08/01 09:52:02;;;;;;;4.97;4.45;;;;;;;22.68;53.95;100735.91;3581868;40;20216;-77
2021/08/01 09:54:44;;;;;;;5.77;4.73;;;;;;;22.76;54.19;100726.97;3578367;40;20232;-78
2021/08/01 09:57:16;;;;;;;5.95;4.45;;;;;;;22.87;53.46;100730.06;3578147;40;20265;-76
2021/08/01 09:59:41;;;;;;;6.00;4.80;;;;;;;22.74;54.22;100723.53;3578119;40;20253;-77
2021/08/01 10:02:08;;;;;;;5.23;4.60;;;;;;;22.58;55.03;100727.53;3578270;40;20311;-77
2021/08/01 10:04:38;;;;;;;4.60;4.30;;;;;;;22.61;54.15;100730.03;3577997;40;20237;-77
2021/08/01 10:07:16;;;;;;;4.23;3.93;;;;;;;22.43;54.98;100731.44;3578091;40;20504;-77
2021/08/01 10:09:43;;;;;;;5.07;4.17;;;;;;;22.62;54.54;100718.72;3582078;40;20237;-77
2021/08/01 10:12:10;;;;;;;4.97;4.57;;;;;;;22.49;54.54;100730.44;3578006;40;20238;-77
2021/08/01 10:14:36;;;;;;;6.83;4.67;;;;;;;22.57;54.07;100725.84;3577897;40;20238;-77
2021/08/01 10:17:03;;;;;;;6.03;4.90;;;;;;;22.38;53.80;100719.41;3577948;40;20245;-77
2021/08/01 10:19:29;;;;;;;4.90;4.40;;;;;;;22.19;54.97;100723.50;3567768;40;20238;-77
2021/08/01 10:22:03;;;;;;;4.50;4.10;;;;;;;22.12;55.75;100719.38;3568651;40;20274;-76
2021/08/01 10:24:38;;;;;;;5.90;4.50;;;;;;;21.96;56.68;100721.56;3577937;40;20248;-77
2021/08/01 10:27:08;;;;;;;5.20;4.70;;;;;;;22.08;56.78;100720.34;3578520;40;20500;-77
2021/08/01 10:29:43;;;;;;;4.87;4.40;;;;;;;22.00;55.91;100712.75;3582644;40;20245;-77
2021/08/01 10:32:09;;;;;;;4.20;3.67;;;;;;;22.21;54.90;100708.66;3578237;40;20226;-76
2021/08/01 10:34:53;;;;;;;5.20;4.70;;;;;;;22.41;53.93;100715.88;3578182;40;20255;-76
2021/08/01 10:37:23;;;;;;;4.43;4.03;;;;;;;22.53;54.39;100723.34;3582510;40;20282;-77
2021/08/01 10:39:49;;;;;;;4.33;3.93;;;;;;;22.68;54.16;100712.41;3578515;40;20241;-76
2021/08/01 10:42:17;;;;;;;5.70;3.47;;;;;;;22.94;52.99;100717.66;3577905;40;20233;-77
2021/08/01 10:44:42;;;;;;;5.03;3.87;;;;;;;23.09;52.72;100714.53;3579194;40;20324;-77
2021/08/01 10:47:10;;;;;;;3.90;3.50;;;;;;;23.28;51.98;100710.41;3581735;40;20493;-77
2021/08/01 10:49:43;;;;;;;4.57;3.00;;;;;;;23.49;51.63;100702.69;3578164;40;20261;-77
2021/08/01 10:52:10;;;;;;;4.17;3.53;;;;;;;23.81;49.21;100701.53;3578299;40;20230;-78
2021/08/01 10:54:37;;;;;;;3.77;3.37;;;;;;;23.73;49.69;100704.44;3578191;40;20249;-76
2021/08/01 10:57:12;;;;;;;5.07;3.43;;;;;;;23.49;51.34;100702.69;3586658;40;20233;-77
2021/08/01 10:59:43;;;;;;;3.43;3.13;;;;;;;23.70;51.89;100701.91;3578815;40;20639;-77
2021/08/01 11:02:22;;;;;;;4.70;3.35;;;;;;;24.06;51.13;100695.34;3578285;40;20249;-78
2021/08/01 11:04:50;;;;;;;3.55;3.10;;;;;;;24.30;49.63;100685.69;3578095;40;20250;-77
2021/08/01 11:07:27;;;;;;;3.08;2.83;;;;;;;24.53;47.39;100678.63;3577688;40;20641;-77
2021/08/01 11:10:08;;;;;;;3.50;2.85;;;;;;;24.69;47.45;100676.28;3577989;40;20276;-76
2021/08/01 11:12:37;;;;;;;2.70;2.50;;;;;;;24.55;47.68;100673.34;3568462;40;20242;-77
2021/08/01 11:15:14;;;;;;;2.72;2.53;;;;;;;24.50;46.59;100665.66;3583518;40;20221;-77
2021/08/01 11:17:42;;;;;;;3.47;2.80;;;;;;;24.42;46.12;100664.25;3578100;40;20228;-77
2021/08/01 11:20:21;;;;;;;3.35;2.67;;;;;;;24.02;48.29;100669.34;3588250;40;20241;-76
2021/08/01 11:22:46;;;;;;;3.20;2.90;;;;;;;23.87;47.83;100669.91;3588155;40;20235;-77
2021/08/01 11:25:22;;;;;;;3.78;2.85;;;;;;;23.84;49.16;100672.66;3579768;40;20226;-77